createdAt,value
2023-01-25T00:06:19.177Z,77.90
2023-01-25T00:08:52.686Z,69.60
2023-01-25T00:11:21.494Z,75.40
2023-01-25T00:13:49.727Z,64.00
2023-01-25T00:16:17.854Z,77.30
2023-01-25T00:18:45.857Z,67.70
2023-01-25T00:21:15.240Z,76.30
2023-01-25T00:23:43.276Z,65.40
2023-01-25T00:26:11.442Z,69.70
2023-01-25T00:28:40.696Z,63.90
2023-01-25T00:31:20.233Z,60.60
2023-01-25T00:34:01.986Z,57.40
2023-01-25T00:36:37.811Z,59.40
2023-01-25T00:39:13.665Z,52.80
2023-01-25T00:41:42.932Z,48.60
2023-01-25T00:44:11.505Z,62.90
2023-01-25T00:46:40.188Z,54.80
2023-01-25T00:49:31.767Z,62.90
2023-01-25T00:52:00.012Z,48.70
2023-01-25T00:54:30.081Z,62.20
2023-01-25T00:56:58.691Z,59.40
2023-01-25T00:59:27.514Z,63.00
2023-01-25T01:01:55.833Z,53.80
2023-01-25T01:04:26.911Z,52.60
2023-01-25T01:06:55.880Z,55.70
2023-01-25T01:09:24.178Z,50.70
2023-01-25T01:11:54.258Z,48.50
2023-01-25T01:14:22.904Z,50.10
2023-01-25T01:16:57.076Z,44.40
2023-01-25T01:19:30.984Z,53.80
2023-01-25T01:21:58.950Z,55.70
2023-01-25T01:24:30.484Z,47.40
2023-01-25T01:27:02.025Z,48.30
2023-01-25T01:29:30.100Z,50.10
2023-01-25T01:31:59.120Z,48.00
2023-01-25T01:34:29.723Z,52.70
2023-01-25T01:36:58.352Z,45.40
2023-01-25T01:39:27.958Z,53.50
2023-01-25T01:41:58.634Z,58.50
2023-01-25T01:44:47.663Z,51.20
2023-01-25T01:47:22.682Z,49.80
2023-01-25T01:49:54.397Z,44.20
2023-01-25T01:52:27.614Z,44.10
2023-01-25T01:55:09.406Z,46.40
2023-01-25T01:57:46.464Z,43.50
2023-01-25T02:00:17.702Z,47.50
2023-01-25T02:02:46.977Z,53.00
2023-01-25T02:05:20.122Z,49.50
2023-01-25T02:07:49.866Z,43.70
2023-01-25T02:10:20.264Z,51.90
2023-01-25T02:12:48.941Z,43.40
2023-01-25T02:15:19.863Z,47.20
2023-01-25T02:17:48.334Z,54.20
2023-01-25T02:20:26.996Z,53.00
2023-01-25T02:23:18.921Z,51.00
2023-01-25T02:25:48.118Z,52.90
2023-01-25T02:28:17.277Z,48.40
2023-01-25T02:30:45.402Z,46.80
2023-01-25T02:33:13.465Z,49.00
2023-01-25T02:35:51.560Z,44.50
2023-01-25T02:38:21.572Z,47.70
2023-01-25T02:40:56.533Z,56.40
2023-01-25T02:43:30.009Z,57.30
2023-01-25T02:46:02.316Z,47.50
2023-01-25T02:48:31.803Z,53.00
2023-01-25T02:51:00.055Z,45.70
2023-01-25T02:53:29.483Z,50.60
2023-01-25T02:55:57.522Z,50.40
2023-01-25T02:58:25.601Z,52.10
2023-01-25T03:00:53.721Z,45.40
2023-01-25T03:03:21.948Z,40.70
2023-01-25T03:05:50.087Z,46.10
2023-01-25T03:08:18.591Z,57.10
2023-01-25T03:10:47.359Z,47.70
2023-01-25T03:13:16.365Z,58.60
2023-01-25T03:15:44.686Z,53.30
2023-01-25T03:18:13.038Z,59.10
2023-01-25T03:20:41.364Z,55.80
2023-01-25T03:23:09.469Z,51.20
2023-01-25T03:25:40.989Z,50.50
2023-01-25T03:28:12.744Z,51.50
2023-01-25T03:30:41.246Z,45.80
2023-01-25T03:33:09.469Z,55.50
2023-01-25T03:35:45.962Z,48.60
2023-01-25T03:38:14.271Z,46.00
2023-01-25T03:40:42.459Z,46.50
2023-01-25T03:43:11.498Z,46.00
2023-01-25T03:45:39.425Z,47.80
2023-01-25T03:48:07.861Z,49.80
2023-01-25T03:50:38.519Z,40.70
2023-01-25T03:53:35.857Z,43.00
2023-01-25T03:56:10.096Z,40.30
2023-01-25T03:58:39.135Z,36.00
2023-01-25T04:01:08.051Z,44.10
2023-01-25T04:03:36.304Z,32.90
2023-01-25T04:06:06.189Z,34.30
2023-01-25T04:08:35.007Z,35.70
2023-01-25T04:11:06.801Z,41.30
2023-01-25T04:13:36.803Z,33.90
2023-01-25T04:16:07.215Z,35.70
2023-01-25T04:18:57.217Z,31.50
2023-01-25T04:21:25.876Z,27.10
2023-01-25T04:23:54.181Z,28.90
2023-01-25T04:26:22.620Z,39.30
2023-01-25T04:28:55.508Z,38.40
2023-01-25T04:31:25.681Z,29.80
2023-01-25T04:33:57.617Z,27.00
2023-01-25T04:36:26.361Z,34.60
2023-01-25T04:38:54.359Z,32.40
2023-01-25T04:41:27.031Z,33.30
2023-01-25T04:43:55.896Z,32.30
2023-01-25T04:46:24.109Z,30.70
2023-01-25T04:48:52.860Z,32.00
2023-01-25T04:51:22.709Z,30.00
2023-01-25T04:53:51.456Z,29.00
2023-01-25T04:56:20.152Z,32.20
2023-01-25T04:58:52.258Z,31.40
2023-01-25T05:01:22.511Z,35.90
2023-01-25T05:03:51.209Z,30.70
2023-01-25T05:06:40.785Z,32.00
2023-01-25T05:09:10.963Z,41.00
2023-01-25T05:11:41.555Z,30.10
2023-01-25T05:14:14.738Z,34.00
2023-01-25T05:16:45.088Z,35.80
2023-01-25T05:19:13.386Z,28.70
2023-01-25T05:22:03.410Z,29.70
2023-01-25T05:24:37.035Z,26.20
2023-01-25T05:27:08.996Z,30.90
2023-01-25T05:29:57.424Z,31.80
2023-01-25T05:32:36.549Z,29.60
2023-01-25T05:35:05.106Z,29.30
2023-01-25T10:02:36.848Z,41.10
2023-01-25T10:05:26.963Z,43.30
2023-01-25T10:07:58.080Z,42.40
2023-01-25T10:10:34.749Z,36.90
2023-01-25T10:13:04.484Z,45.80
2023-01-25T10:15:37.761Z,41.60
2023-01-25T10:18:18.885Z,42.10
2023-01-25T10:21:16.581Z,37.50
2023-01-25T10:24:22.241Z,41.20
2023-01-25T10:26:56.359Z,39.50
2023-01-25T10:29:28.050Z,43.30
2023-01-25T10:31:57.845Z,31.40
2023-01-25T10:34:27.424Z,32.00
2023-01-25T10:36:55.079Z,33.40
2023-01-25T10:39:21.723Z,49.20
2023-01-25T10:41:52.260Z,43.80
2023-01-25T10:44:21.670Z,31.40
2023-01-25T10:46:51.666Z,42.90
2023-01-25T10:49:24.313Z,38.20
2023-01-25T10:51:51.001Z,37.60
2023-01-25T10:54:17.589Z,38.50
2023-01-25T10:56:44.258Z,40.80
2023-01-25T10:59:25.094Z,36.00
2023-01-25T11:01:52.130Z,36.60
2023-01-25T11:04:23.847Z,33.20
2023-01-25T11:06:51.811Z,37.50
2023-01-25T11:09:21.623Z,40.90
2023-01-25T11:11:59.317Z,38.90
2023-01-25T11:14:27.593Z,39.20
2023-01-25T11:16:55.666Z,42.60
2023-01-25T11:19:39.537Z,39.00
2023-01-25T11:22:28.159Z,42.30
2023-01-25T11:24:54.802Z,47.00
2023-01-25T11:27:26.119Z,51.00
2023-01-25T11:30:06.092Z,52.40
2023-01-25T11:32:33.261Z,53.20
2023-01-25T11:35:00.408Z,52.10
2023-01-25T11:38:04.933Z,53.30
2023-01-25T11:40:37.843Z,51.10
2023-01-25T11:43:09.264Z,56.50
2023-01-25T11:48:30.195Z,54.00
2023-01-25T11:51:02.846Z,50.10
2023-01-25T11:54:07.423Z,49.40
2023-01-25T11:56:41.479Z,49.90
2023-01-25T11:59:34.561Z,54.50
2023-01-25T12:02:39.141Z,55.90
2023-01-25T12:05:21.845Z,52.70
2023-01-25T12:08:26.752Z,49.40
2023-01-25T12:11:08.968Z,58.60
2023-01-25T12:13:52.137Z,53.30
2023-01-25T12:16:37.240Z,55.50
2023-01-25T12:19:41.493Z,55.20
2023-01-25T12:22:14.446Z,57.30
2023-01-25T12:24:56.350Z,48.80
2023-01-25T12:27:37.956Z,52.30
2023-01-25T12:30:26.514Z,61.40
2023-01-25T12:33:13.609Z,61.60
2023-01-25T12:35:43.908Z,60.60
2023-01-25T12:38:18.457Z,69.10
2023-01-25T12:40:54.231Z,59.50
2023-01-25T12:43:24.931Z,60.50
2023-01-25T12:45:53.318Z,66.40
2023-01-25T12:48:21.894Z,65.00
2023-01-25T12:50:56.312Z,66.20
2023-01-25T12:53:24.300Z,69.30
2023-01-25T12:55:51.336Z,66.90
2023-01-25T12:58:37.437Z,83.10
2023-01-25T13:01:10.931Z,71.60
2023-01-25T13:03:56.435Z,71.00
2023-01-25T13:06:47.318Z,73.90
2023-01-25T13:10:03.208Z,73.10
2023-01-25T13:12:51.439Z,67.90
2023-01-25T13:15:39.724Z,92.40
2023-01-25T13:18:28.446Z,76.20
2023-01-25T13:20:56.780Z,68.00
2023-01-25T13:23:34.835Z,81.00
2023-01-25T13:26:20.516Z,91.90
2023-01-25T13:28:48.465Z,71.10
2023-01-25T13:31:51.608Z,85.00
2023-01-25T13:34:43.725Z,85.10
2023-01-25T13:37:19.071Z,72.70
2023-01-25T13:40:05.921Z,81.60
2023-01-25T13:42:34.200Z,91.60
2023-01-25T13:45:13.872Z,73.00
2023-01-25T13:47:41.938Z,72.60
2023-01-25T13:50:18.050Z,71.70
2023-01-25T18:01:12.602Z,112.10
2023-01-25T18:03:40.897Z,118.00
2023-01-25T18:06:11.231Z,100.80
2023-01-25T18:08:41.851Z,91.90
2023-01-25T18:11:09.774Z,103.60
2023-01-25T18:13:49.658Z,107.90
2023-01-25T18:16:17.379Z,119.80
2023-01-25T18:18:46.332Z,110.10
2023-01-25T18:21:23.652Z,101.90
2023-01-25T18:23:51.901Z,108.70
2023-01-25T18:26:25.696Z,104.50
2023-01-25T18:29:45.813Z,113.60
2023-01-25T18:32:13.461Z,106.40
2023-01-25T18:34:40.011Z,126.50
2023-01-25T18:37:17.079Z,119.40
2023-01-25T18:39:45.340Z,119.30
2023-01-25T18:42:11.921Z,110.70
2023-01-25T18:44:38.919Z,117.30
2023-01-25T18:47:05.980Z,137.60
2023-01-25T18:49:32.553Z,113.60
2023-01-25T18:52:10.836Z,106.50
2023-01-25T18:54:38.442Z,116.80
2023-01-25T18:57:06.243Z,115.90
2023-01-25T18:59:33.407Z,110.30
2023-01-25T19:02:00.028Z,113.80
2023-01-25T19:04:27.318Z,113.30
2023-01-25T19:06:56.930Z,111.40
2023-01-25T19:09:24.517Z,119.60
2023-01-25T19:11:51.286Z,107.00
2023-01-25T19:14:18.477Z,120.80
2023-01-25T19:16:45.299Z,98.40
2023-01-25T19:19:11.846Z,114.90
2023-01-25T19:21:38.805Z,107.60
2023-01-25T19:24:09.063Z,108.50
2023-01-25T19:26:36.271Z,110.10
2023-01-25T19:29:02.898Z,117.50
2023-01-25T19:31:31.828Z,107.70
2023-01-25T19:34:00.523Z,106.40
2023-01-25T19:36:28.539Z,105.90
2023-01-25T19:38:56.917Z,94.00
2023-01-25T19:41:26.160Z,126.60
2023-01-25T19:43:54.195Z,97.20
2023-01-25T19:46:23.919Z,97.80
2023-01-25T19:48:52.773Z,101.90
2023-01-25T19:51:41.680Z,117.90
2023-01-25T19:54:16.217Z,102.20
2023-01-25T19:56:44.562Z,99.70
2023-01-25T19:59:16.631Z,102.40
2023-01-25T20:01:44.567Z,98.90
2023-01-25T20:04:12.931Z,112.70
2023-01-25T20:06:39.824Z,97.10
2023-01-25T20:09:06.544Z,106.90
2023-01-25T20:11:34.005Z,92.90
2023-01-25T20:14:02.989Z,93.30
2023-01-25T20:16:31.424Z,105.80
2023-01-25T20:18:58.439Z,97.00
2023-01-25T20:21:25.514Z,94.60
2023-01-25T20:23:55.320Z,93.10
2023-01-25T20:26:23.976Z,91.50
2023-01-25T20:28:51.866Z,90.50
2023-01-25T20:31:33.328Z,90.40
2023-01-25T20:36:29.656Z,98.80
2023-01-25T20:38:56.371Z,89.80
2023-01-25T20:41:23.451Z,101.90
2023-01-25T20:43:51.833Z,91.70
2023-01-25T20:46:19.407Z,90.00
2023-01-25T20:48:46.318Z,89.80
2023-01-25T20:51:14.026Z,100.00
2023-01-25T20:53:41.573Z,93.10
2023-01-25T20:56:08.928Z,113.90
2023-01-25T20:58:35.986Z,93.60
2023-01-25T21:01:03.983Z,91.50
2023-01-25T21:03:30.659Z,110.20
2023-01-25T21:05:58.123Z,87.10
2023-01-25T21:08:24.879Z,87.60
2023-01-25T21:10:53.481Z,95.10
2023-01-25T21:13:20.416Z,99.30
2023-01-25T21:16:09.522Z,98.70
2023-01-25T21:18:43.843Z,93.30
2023-01-25T21:21:17.967Z,86.50
2023-01-25T21:23:48.811Z,87.10
2023-01-25T21:26:20.219Z,85.30
2023-01-25T21:28:47.429Z,80.10
2023-01-25T21:31:20.288Z,84.70
2023-01-25T21:33:47.213Z,85.70
2023-01-25T21:36:14.743Z,88.10
2023-01-25T21:38:45.476Z,84.30
2023-01-25T21:41:14.646Z,84.40
2023-01-25T21:44:01.185Z,94.30
2023-01-25T21:46:28.099Z,83.00
2023-01-25T21:49:21.312Z,81.70
2023-01-25T21:51:49.956Z,89.50
2023-01-25T23:54:15.788Z,66.70
2023-01-25T23:56:43.783Z,66.60
2023-01-25T23:59:11.776Z,72.50
